Aviation Digital Data Service (ADDS)

Output produced by METARs form (0432 UTC 19 August 2019)
found at http://www.aviationweather.gov/metar/data/
 
Forecast for: KSLC (SALT LAKE CITY , UT, US)
Text: KSLC 190303Z 1903/2006 15006KT P6SM SKC
Forecast period: 0300 to 0600 UTC 19 August 2019
Forecast type: FROM: standard forecast or significant change
Winds: from the SSE (150 degrees) at 7 MPH (6 knots; 3.1 m/s)
Visibility: 6 or more miles 10+ km)
Clouds: clear skies
Weather: no significant weather forecast for this period
Text: FM190600 16011KT P6SM SKC
Forecast period: 0600 to 1600 UTC 19 August 2019
Forecast type: FROM: standard forecast or significant change
Winds: from the SSE (160 degrees) at 13 MPH (11 knots; 5.7 m/s)
Visibility: 6 or more miles 10+ km)
Clouds: clear skies
Weather: no significant weather forecast for this period
Text: FM191600 18018G28KT P6SM SKC
Forecast period: 1600 UTC 19 August 2019 to 0600 UTC 20 August 2019
Forecast type: FROM: standard forecast or significant change
Winds: from the S (180 degrees) at 21 MPH (18 knots; 9.3 m/s)
gusting to 32 MPH (28 knots; 14.4 m/s)
Visibility: 6 or more miles 10+ km)
Clouds: clear skies
Weather: no significant weather forecast for this period